CST,Max TemperatureF,Mean TemperatureF,Min TemperatureF,Max Dew PointF,MeanDew PointF,Min DewpointF,Max Humidity, Mean Humidity, Min Humidity, Max Sea Level PressureIn, Mean Sea Level PressureIn, Min Sea Level PressureIn, Max VisibilityMiles, Mean VisibilityMiles, Min VisibilityMiles, Max Wind SpeedMPH, Mean Wind SpeedMPH, Max Gust SpeedMPH,PrecipitationIn, CloudCover, Events, WindDirDegrees
2011-11-1,73,55,37,41,35,30,93,54,20,30.28,30.22,30.16,10,10,10,9,2,,0.00,1,,138
2011-11-2,73,58,42,48,42,39,87,53,33,30.25,30.16,30.05,10,10,10,13,5,,0.00,1,,145
2011-11-3,62,54,46,59,43,37,100,75,52,30.07,29.98,29.85,10,10,3,24,14,,0.00,8,Rain,253
2011-11-4,55,52,48,48,47,43,93,85,77,30.22,30.17,30.08,10,9,4,12,8,,0.00,8,,349
2011-11-5,69,52,35,48,45,36,100,76,43,30.23,30.15,30.08,10,7,0,7,2,,0.00,1,Fog,137
2011-11-6,68,59,50,52,44,36,82,59,45,30.26,30.20,30.13,10,10,10,15,8,,0.00,4,,141
2011-11-7,78,68,57,57,54,52,82,64,44,30.26,30.20,30.12,10,10,10,9,6,,0.00,4,,144
2011-11-8,78,69,60,61,58,52,77,67,54,30.10,30.01,29.88,10,10,10,20,8,22,0.00,4,,149
2011-11-9,69,54,37,66,45,37,100,76,51,30.25,30.10,29.86,10,10,6,21,10,23,0.00,4,Rain,281
2011-11-10,57,45,33,37,29,21,100,58,26,30.31,30.24,30.20,10,10,10,17,5,,0.00,0,,300
2011-11-11,66,47,28,36,31,27,100,58,26,30.22,30.14,30.06,10,10,6,13,3,25,0.00,1,,186
2011-11-12,64,55,46,48,44,34,76,60,47,30.13,30.06,29.96,10,10,10,14,7,32,0.00,4,,166
2011-11-13,75,68,60,61,57,50,73,65,57,29.94,29.86,29.79,10,10,10,17,12,31,0.00,6,,182
2011-11-14,80,74,69,64,62,59,78,68,57,29.90,29.84,29.78,10,10,10,15,10,29,0.00,7,,181
2011-11-15,62,60,59,61,59,55,100,94,77,29.88,29.82,29.75,10,7,1,12,5,,0.00,8,Rain,64
2011-11-16,60,52,44,61,44,28,100,75,50,30.24,29.97,29.77,10,9,2,20,9,,0.00,7,Rain,5
2011-11-17,51,40,28,30,24,16,93,54,24,30.40,30.35,30.23,10,10,10,14,6,,0.00,1,,342
2011-11-18,59,44,28,34,24,16,93,51,21,30.37,30.26,30.12,10,10,10,12,4,,0.00,2,,140
2011-11-19,71,60,48,54,47,36,82,63,50,30.13,30.07,30.00,10,10,10,14,9,,0.00,4,,155
2011-11-20,69,64,60,66,63,57,100,93,82,30.16,30.12,30.06,10,8,2,10,7,,0.00,6,Rain,156
2011-11-21,69,66,62,66,63,63,100,98,88,30.18,30.09,29.99,10,6,1,13,3,31,0.00,7,Rain,151
2011-11-22,66,60,55,66,60,52,100,94,83,30.04,29.90,29.79,10,9,3,17,8,,0.00,7,Rain,203
2011-11-23,53,50,46,48,46,45,93,83,77,30.34,30.26,30.12,10,10,10,9,5,,0.00,8,,342
2011-11-24,57,50,42,48,45,43,100,90,67,30.40,30.34,30.29,10,8,4,5,1,,0.00,5,,143
2011-11-25,69,53,37,50,42,37,100,70,33,30.26,30.16,30.06,10,9,5,13,4,,0.00,3,,141
2011-11-26,73,65,57,61,56,52,100,77,57,30.07,29.96,29.85,10,9,4,18,8,28,0.00,7,Rain,151
2011-11-27,51,45,39,52,41,37,100,93,87,30.08,30.02,29.89,10,7,2,15,10,,0.00,8,Rain,339
2011-11-28,39,36,33,37,36,34,100,97,87,30.03,29.91,29.80,10,6,1,14,10,,0.00,8,Rain-Snow,309
2011-11-29,39,34,30,36,33,30,100,93,81,30.15,29.96,29.76,10,8,2,15,9,,0.00,6,Snow,300
2011-11-30,46,36,26,30,28,25,100,72,43,30.24,30.19,30.13,10,10,4,7,2,,0.00,1,,305